KCMY

Sparta / Fort Mc Coy Airport

Sparta, Wisconsin, USA
METAR KCMY 151855Z AUTO 26010G15KT 10SM CLR M11/M18 A3002 RMK AO2 T11151178
Observed Flight Rules
Feb-15 @ 18:55 UTC (17 minutes ago) Visual Flight Rules
Wind Visibility Clouds
260° at 10 knots
 Gusting to 15 knots
10 miles
  • Clear skies
Temperatures Readings
Current -12°C / 10°F
Dewpoint -18°C / -0°F
Humidity 61%
Altimeter 30.02" Hg
Pressure 1016.62 hPa
Elevation 256
METAR KCMY 151855Z AUTO 26010G15KT 10SM CLR M11/M18 A3002 RMK AO2 T11151178
Observed Flight Rules
Feb-15 @ 18:55 UTC
(17 minutes ago)
VFR
Wind Visibility
260° at 10 knots
 Gusting to 15 knots
10 miles
Clouds
  • Clear skies
Temperature Dewpoint
-12°C / 10°F -18°C / -0°F
Humidity Altimeter Pressure
61% 30.02" Hg 1016.62 hPa